Time;durP1;ratioP1;P1;durP2;ratioP2;P2;SDS_P1;SDS_P2;PMS_P1;PMS_P2;Temp;Humidity;BMP_temperature;BMP_pressure;BME280_temperature;BME280_humidity;BME280_pressure;Samples;Min_cycle;Max_cycle;Signal;HPM_P1;HPM_P2
2021/05/09 00:00:53;;;;;;;3.63;1.65;;;14.40;77.20;;;;;;2069550;28;20050;-84
2021/05/09 00:01:55;;;;;;;2.53;1.63;;;14.40;77.20;;;;;;2085317;28;20101;-84
2021/05/09 00:02:55;;;;;;;3.05;1.40;;;14.40;77.20;;;;;;2069532;28;20050;-83
2021/05/09 00:03:56;;;;;;;4.20;1.60;;;14.40;77.20;;;;;;2072750;28;20026;-83
2021/05/09 00:04:57;;;;;;;2.58;1.42;;;14.40;77.20;;;;;;2077420;28;20088;-83
2021/05/09 00:05:58;;;;;;;3.13;1.45;;;14.40;77.20;;;;;;2079993;28;20392;-83
2021/05/09 00:06:58;;;;;;;3.40;1.48;;;14.40;77.20;;;;;;2079882;28;20140;-83
2021/05/09 00:07:59;;;;;;;2.20;1.45;;;14.40;77.20;;;;;;2082912;28;20137;-83
2021/05/09 00:09:00;;;;;;;3.83;1.70;;;14.40;77.30;;;;;;2082745;28;20041;-83
2021/05/09 00:10:00;;;;;;;3.05;1.20;;;14.40;77.30;;;;;;2078592;28;20480;-83
2021/05/09 00:11:01;;;;;;;2.85;1.38;;;14.30;77.20;;;;;;2075011;28;20480;-84
2021/05/09 00:12:03;;;;;;;2.30;1.42;;;14.30;77.30;;;;;;2085433;28;20037;-83
2021/05/09 00:13:04;;;;;;;4.20;1.75;;;14.30;77.40;;;;;;2079057;28;20057;-83
2021/05/09 00:14:04;;;;;;;2.35;1.30;;;14.30;77.40;;;;;;2087181;28;20044;-84
2021/05/09 00:15:10;;;;;;;2.88;1.60;;;14.30;77.40;;;;;;2079323;28;20049;-84
2021/05/09 00:16:10;;;;;;;3.28;1.50;;;14.30;77.50;;;;;;2073219;28;20099;-84
2021/05/09 00:17:11;;;;;;;3.17;1.48;;;14.30;78.20;;;;;;2079628;28;20484;-84
2021/05/09 00:18:12;;;;;;;2.30;1.27;;;14.30;77.60;;;;;;2079137;28;20042;-83
2021/05/09 00:19:12;;;;;;;2.83;1.52;;;14.20;77.60;;;;;;2080011;28;20029;-83
2021/05/09 00:20:13;;;;;;;1.75;1.20;;;14.20;77.60;;;;;;2084589;28;20029;-83
2021/05/09 00:21:14;;;;;;;4.10;1.45;;;14.20;77.60;;;;;;2070181;28;20412;-84
2021/05/09 00:22:15;;;;;;;2.60;1.52;;;14.20;77.60;;;;;;2078508;28;20040;-83
2021/05/09 00:23:15;;;;;;;2.25;1.42;;;14.20;77.60;;;;;;2078306;28;20164;-83
2021/05/09 00:24:16;;;;;;;2.92;1.70;;;14.20;77.60;;;;;;2079816;28;20087;-83
2021/05/09 00:25:17;;;;;;;3.25;1.55;;;14.20;77.60;;;;;;2080368;28;20109;-83
2021/05/09 00:26:18;;;;;;;3.25;1.60;;;14.20;77.60;;;;;;2079088;28;20026;-83
2021/05/09 00:27:19;;;;;;;1.95;1.30;;;14.20;77.60;;;;;;2079393;28;20038;-83
2021/05/09 00:28:19;;;;;;;2.50;1.20;;;14.20;77.60;;;;;;2079945;28;20022;-83
2021/05/09 00:29:20;;;;;;;2.38;1.40;;;14.20;77.60;;;;;;2080851;28;20523;-83
2021/05/09 00:30:21;;;;;;;2.08;1.30;;;14.20;77.60;;;;;;2080015;28;20030;-84
2021/05/09 00:31:22;;;;;;;2.75;1.33;;;14.20;77.60;;;;;;2083801;28;20025;-83
2021/05/09 00:32:22;;;;;;;2.42;1.33;;;14.20;77.60;;;;;;2089421;28;20029;-83
2021/05/09 00:33:23;;;;;;;2.67;1.50;;;14.20;77.60;;;;;;2077915;28;20026;-83
2021/05/09 00:34:23;;;;;;;2.20;1.50;;;14.20;78.20;;;;;;2072107;28;20057;-83
2021/05/09 00:35:24;;;;;;;2.60;1.55;;;14.20;77.60;;;;;;2086117;28;20032;-85
2021/05/09 00:36:27;;;;;;;2.95;1.30;;;14.20;77.70;;;;;;2076027;28;20041;-84
2021/05/09 00:37:28;;;;;;;2.90;1.40;;;14.20;77.60;;;;;;2077821;28;20413;-83
2021/05/09 00:38:29;;;;;;;3.45;1.40;;;14.20;78.20;;;;;;2076250;28;20025;-83
2021/05/09 00:39:29;;;;;;;2.85;1.35;;;14.20;78.10;;;;;;2072009;28;20492;-83
2021/05/09 00:40:30;;;;;;;3.72;1.40;;;14.20;77.50;;;;;;2063732;28;20129;-83
2021/05/09 00:41:31;;;;;;;3.05;1.52;;;14.20;77.40;;;;;;2076952;28;20057;-84
2021/05/09 00:42:31;;;;;;;1.92;1.38;;;14.20;77.40;;;;;;2073189;28;20026;-84
2021/05/09 00:43:32;;;;;;;2.60;1.38;;;14.20;77.40;;;;;;2065169;28;20514;-83
2021/05/09 00:44:34;;;;;;;2.63;1.30;;;14.20;77.40;;;;;;2065349;28;20033;-83
2021/05/09 00:45:34;;;;;;;2.47;1.27;;;14.20;77.40;;;;;;2074199;28;20034;-83
2021/05/09 00:46:35;;;;;;;3.38;1.40;;;14.20;77.40;;;;;;2073334;28;20112;-82
2021/05/09 00:47:36;;;;;;;3.35;1.45;;;14.20;77.40;;;;;;2079892;28;20025;-83
2021/05/09 00:48:37;;;;;;;3.15;1.20;;;14.20;77.40;;;;;;2087103;28;20418;-83
2021/05/09 00:49:38;;;;;;;2.58;1.50;;;14.20;77.40;;;;;;2076932;28;20030;-83
2021/05/09 00:50:39;;;;;;;1.92;1.33;;;14.20;77.50;;;;;;2088609;28;20017;-83
2021/05/09 00:51:42;;;;;;;2.67;1.40;;;14.20;77.60;;;;;;2089834;28;20033;-83
2021/05/09 00:52:45;;;;;;;2.10;1.20;;;14.10;77.60;;;;;;2084858;28;20540;-83
2021/05/09 00:53:46;;;;;;;2.53;1.30;;;14.10;77.60;;;;;;2094026;28;20520;-82
2021/05/09 00:54:52;;;;;;;2.70;1.40;;;14.10;77.60;;;;;;2089401;28;20033;-83
2021/05/09 00:55:56;;;;;;;3.00;1.45;;;14.10;77.70;;;;;;2088820;28;20032;-82
2021/05/09 00:56:57;;;;;;;2.85;1.40;;;14.10;77.70;;;;;;2085751;28;20044;-83
2021/05/09 00:57:59;;;;;;;2.65;1.33;;;14.10;77.70;;;;;;2081836;28;20033;-83
2021/05/09 00:59:00;;;;;;;2.67;1.35;;;14.10;77.70;;;;;;2077412;28;20058;-84
2021/05/09 01:00:05;;;;;;;2.55;1.40;;;14.10;77.70;;;;;;2068830;28;20088;-82
2021/05/09 01:01:05;;;;;;;3.05;1.40;;;14.10;77.80;;;;;;2070870;28;20018;-83
2021/05/09 01:02:08;;;;;;;2.88;1.60;;;14.00;77.80;;;;;;2071860;28;20128;-82
2021/05/09 01:03:12;;;;;;;1.85;1.35;;;14.00;77.80;;;;;;2068941;28;20046;-83
2021/05/09 01:04:15;;;;;;;2.47;1.40;;;14.00;77.80;;;;;;2073749;28;20082;-83
2021/05/09 01:05:15;;;;;;;2.83;1.40;;;14.00;77.90;;;;;;2080698;28;20526;-83
2021/05/09 01:06:16;;;;;;;3.17;1.42;;;14.00;77.90;;;;;;2088807;28;20029;-83
2021/05/09 01:07:17;;;;;;;3.35;1.50;;;14.00;77.90;;;;;;2073062;28;20029;-83
2021/05/09 01:08:18;;;;;;;3.25;1.27;;;14.00;78.00;;;;;;2073930;28;20030;-82
2021/05/09 01:09:19;;;;;;;1.85;1.30;;;14.00;78.00;;;;;;2077885;28;20022;-83
2021/05/09 01:10:19;;;;;;;2.45;1.60;;;14.00;78.10;;;;;;2087770;28;20029;-83
2021/05/09 01:11:20;;;;;;;3.45;1.60;;;13.90;78.00;;;;;;2078762;28;20136;-83
2021/05/09 01:12:21;;;;;;;3.45;1.40;;;13.90;78.00;;;;;;2076358;28;20061;-82
2021/05/09 01:13:22;;;;;;;3.33;1.40;;;14.00;78.10;;;;;;2080329;28;20369;-83
2021/05/09 01:14:23;;;;;;;3.53;1.50;;;13.90;78.10;;;;;;2088373;28;20477;-83
2021/05/09 01:15:24;;;;;;;2.67;1.48;;;13.90;78.10;;;;;;2079977;28;20025;-82
2021/05/09 01:16:25;;;;;;;3.63;1.30;;;13.90;78.10;;;;;;2074185;28;20519;-83
2021/05/09 01:17:25;;;;;;;2.70;1.40;;;13.90;78.20;;;;;;2080123;28;20021;-83
2021/05/09 01:18:28;;;;;;;3.38;1.50;;;13.90;78.20;;;;;;2075471;28;20026;-82
2021/05/09 01:19:28;;;;;;;2.35;1.30;;;13.90;78.20;;;;;;2081148;28;20032;-83
2021/05/09 01:20:30;;;;;;;2.50;1.30;;;13.90;78.30;;;;;;2074154;28;20099;-83
2021/05/09 01:21:31;;;;;;;2.70;1.40;;;13.90;78.20;;;;;;2077685;28;20034;-82
2021/05/09 01:22:31;;;;;;;2.55;1.35;;;13.90;78.30;;;;;;2076629;28;20042;-82
2021/05/09 01:23:32;;;;;;;2.60;1.40;;;13.90;78.90;;;;;;2087467;28;20108;-82
2021/05/09 01:24:33;;;;;;;2.25;1.38;;;13.80;78.30;;;;;;2073916;28;20038;-82
2021/05/09 01:25:34;;;;;;;2.15;1.40;;;13.80;78.30;;;;;;2074316;28;20050;-83
2021/05/09 01:26:34;;;;;;;3.08;1.20;;;13.80;78.40;;;;;;2081481;28;20034;-82
2021/05/09 01:27:36;;;;;;;2.58;1.27;;;13.80;78.40;;;;;;2083225;28;20120;-82
2021/05/09 01:28:37;;;;;;;3.03;1.42;;;13.80;78.40;;;;;;2083462;28;20033;-83
2021/05/09 01:29:37;;;;;;;3.08;1.50;;;13.80;78.40;;;;;;2085532;28;20395;-83
2021/05/09 01:30:38;;;;;;;2.78;1.48;;;13.80;78.50;;;;;;2077094;28;20511;-82
2021/05/09 01:31:39;;;;;;;2.45;1.40;;;13.80;78.50;;;;;;2084483;28;20387;-82
2021/05/09 01:32:39;;;;;;;3.30;1.55;;;13.80;78.40;;;;;;2070914;28;20077;-82
2021/05/09 01:33:40;;;;;;;3.58;1.45;;;13.80;78.50;;;;;;2065842;28;20417;-82
2021/05/09 01:34:41;;;;;;;3.00;1.40;;;13.80;78.50;;;;;;2067422;28;20026;-83
2021/05/09 01:35:41;;;;;;;1.83;1.30;;;13.80;78.50;;;;;;2070263;28;20032;-83
2021/05/09 01:36:42;;;;;;;3.10;1.35;;;13.80;78.50;;;;;;2068681;28;20026;-83
2021/05/09 01:37:43;;;;;;;2.75;1.38;;;13.80;78.50;;;;;;2074439;28;20038;-83
2021/05/09 01:38:44;;;;;;;2.45;1.52;;;13.80;78.60;;;;;;2082233;28;20033;-83
2021/05/09 01:39:45;;;;;;;2.42;1.40;;;13.70;78.60;;;;;;2076189;28;20120;-83
2021/05/09 01:40:45;;;;;;;2.58;1.45;;;13.70;78.60;;;;;;2071099;28;20100;-83
2021/05/09 01:41:46;;;;;;;3.30;1.58;;;13.70;78.60;;;;;;2069248;28;20069;-83
2021/05/09 01:42:46;;;;;;;2.38;1.45;;;13.70;78.70;;;;;;2081024;28;20018;-83
2021/05/09 01:43:47;;;;;;;2.42;1.40;;;13.70;78.70;;;;;;2075120;28;20041;-82
2021/05/09 01:44:51;;;;;;;2.85;1.42;;;13.70;78.70;;;;;;2065748;28;20033;-82
2021/05/09 01:45:51;;;;;;;1.83;1.40;;;13.70;78.80;;;;;;2070237;28;20026;-83
2021/05/09 01:46:52;;;;;;;3.03;1.48;;;13.70;78.80;;;;;;2076977;28;20091;-82
2021/05/09 01:47:53;;;;;;;3.22;1.42;;;13.70;78.80;;;;;;2085926;28;20056;-83
2021/05/09 01:48:53;;;;;;;2.35;1.40;;;13.70;78.80;;;;;;2078428;28;20030;-83
2021/05/09 01:49:54;;;;;;;3.08;1.45;;;13.70;78.80;;;;;;2069361;28;20444;-82
2021/05/09 01:50:55;;;;;;;3.45;1.70;;;13.70;78.90;;;;;;2068949;28;20030;-83
2021/05/09 01:51:55;;;;;;;2.65;1.40;;;13.70;78.90;;;;;;2067539;28;20033;-83
2021/05/09 01:52:57;;;;;;;1.92;1.40;;;13.60;78.80;;;;;;2070299;28;20045;-83
2021/05/09 01:53:58;;;;;;;3.20;1.58;;;13.60;78.90;;;;;;2073588;28;20099;-83
2021/05/09 01:54:59;;;;;;;3.08;1.50;;;13.60;78.90;;;;;;2076434;28;20034;-83
2021/05/09 01:55:59;;;;;;;2.35;1.55;;;13.60;78.90;;;;;;2084599;28;20132;-82
2021/05/09 01:57:00;;;;;;;1.98;1.27;;;13.60;78.90;;;;;;2081870;28;20029;-83
2021/05/09 01:58:00;;;;;;;2.83;1.50;;;13.60;79.00;;;;;;2092428;28;20052;-83
2021/05/09 01:59:01;;;;;;;2.78;1.60;;;13.60;79.00;;;;;;2090911;28;20028;-83
2021/05/09 02:00:12;;;;;;;3.20;1.40;;;13.60;79.00;;;;;;2085664;28;20083;-83
2021/05/09 02:01:13;;;;;;;2.53;1.52;;;13.60;79.10;;;;;;2089782;28;20036;-83
2021/05/09 02:02:14;;;;;;;2.58;1.63;;;13.50;79.00;;;;;;2090753;28;20036;-82
2021/05/09 02:03:14;;;;;;;2.92;1.60;;;13.50;79.10;;;;;;2073121;28;20054;-84
2021/05/09 02:04:15;;;;;;;3.08;1.60;;;13.50;79.10;;;;;;2064264;28;20034;-83
2021/05/09 02:05:16;;;;;;;2.72;1.50;;;13.50;79.20;;;;;;2049294;28;20389;-83
2021/05/09 02:06:17;;;;;;;3.33;1.75;;;13.50;79.20;;;;;;2064592;28;20477;-83
2021/05/09 02:07:18;;;;;;;2.88;1.50;;;13.50;79.30;;;;;;2080287;28;20064;-83
2021/05/09 02:08:21;;;;;;;3.45;1.50;;;13.40;79.30;;;;;;2071941;28;20384;-84
2021/05/09 02:09:22;;;;;;;3.08;1.50;;;13.40;79.40;;;;;;2071379;28;20121;-83
2021/05/09 02:10:23;;;;;;;2.38;1.45;;;13.40;79.50;;;;;;2068098;28;20386;-83
2021/05/09 02:11:23;;;;;;;2.97;1.60;;;13.40;79.60;;;;;;2062338;28;20030;-83
2021/05/09 02:12:24;;;;;;;2.90;1.50;;;13.40;80.20;;;;;;2064267;28;20030;-83
2021/05/09 02:13:25;;;;;;;2.50;1.50;;;13.30;79.60;;;;;;2072882;28;20033;-83
2021/05/09 02:14:26;;;;;;;2.35;1.55;;;13.30;79.60;;;;;;2064622;28;20114;-83
2021/05/09 02:15:26;;;;;;;3.15;1.60;;;13.30;79.70;;;;;;2072026;28;20412;-83
2021/05/09 02:16:27;;;;;;;2.63;1.45;;;13.30;79.70;;;;;;2064853;28;20446;-83
2021/05/09 02:17:28;;;;;;;3.05;1.65;;;13.30;79.70;;;;;;2075166;28;20026;-83
2021/05/09 02:18:28;;;;;;;2.30;1.40;;;13.30;79.70;;;;;;2072433;28;20039;-83
2021/05/09 02:19:29;;;;;;;2.67;1.60;;;13.20;79.80;;;;;;2077557;28;20022;-83
2021/05/09 02:20:29;;;;;;;3.13;1.38;;;13.20;79.80;;;;;;2075941;28;20041;-83
2021/05/09 02:21:32;;;;;;;2.90;1.70;;;13.20;79.80;;;;;;2087832;28;20049;-83
2021/05/09 02:22:33;;;;;;;2.72;1.50;;;13.20;79.90;;;;;;2081093;28;20034;-83
2021/05/09 02:23:33;;;;;;;2.65;1.73;;;13.20;80.00;;;;;;2086173;28;20021;-84
2021/05/09 02:24:34;;;;;;;2.95;1.60;;;13.20;80.00;;;;;;2074123;28;20426;-83
2021/05/09 02:25:34;;;;;;;2.60;1.40;;;13.20;80.10;;;;;;2082743;28;20402;-83
2021/05/09 02:26:35;;;;;;;2.85;1.60;;;13.10;80.10;;;;;;2069373;28;20023;-83
2021/05/09 02:27:36;;;;;;;2.72;1.60;;;13.10;80.10;;;;;;2054800;28;20093;-82
2021/05/09 02:28:36;;;;;;;2.35;1.58;;;13.10;80.20;;;;;;2044810;28;20030;-83
2021/05/09 02:29:39;;;;;;;2.60;1.30;;;13.10;80.20;;;;;;2060910;28;20034;-83
2021/05/09 02:30:39;;;;;;;3.17;1.63;;;13.10;80.20;;;;;;2071983;28;20025;-82
2021/05/09 02:31:40;;;;;;;2.50;1.50;;;13.10;80.20;;;;;;2063193;28;20069;-83
2021/05/09 02:32:41;;;;;;;3.30;1.50;;;13.10;80.20;;;;;;2071848;28;20030;-83
2021/05/09 02:33:41;;;;;;;2.65;1.73;;;13.10;80.30;;;;;;2055451;28;20496;-84
2021/05/09 02:34:42;;;;;;;4.18;1.95;;;13.10;80.90;;;;;;2067434;28;20102;-83
2021/05/09 02:35:43;;;;;;;2.88;1.80;;;13.00;80.30;;;;;;2063729;28;20028;-83
2021/05/09 02:36:44;;;;;;;2.28;1.60;;;13.10;80.40;;;;;;2071700;28;20022;-83
2021/05/09 02:37:45;;;;;;;3.42;1.80;;;13.00;80.30;;;;;;2076368;28;20567;-82
2021/05/09 02:38:46;;;;;;;2.60;1.60;;;13.00;80.30;;;;;;2071888;28;20026;-82
2021/05/09 02:39:46;;;;;;;3.00;2.10;;;13.00;80.30;;;;;;2072321;28;20551;-83
2021/05/09 02:40:47;;;;;;;2.55;1.75;;;13.00;80.40;;;;;;2063404;28;20037;-82
2021/05/09 02:41:48;;;;;;;3.30;1.95;;;13.00;80.40;;;;;;2072765;28;20484;-83
2021/05/09 02:42:50;;;;;;;2.47;1.73;;;13.00;80.50;;;;;;2066283;28;20031;-83
2021/05/09 02:43:51;;;;;;;3.05;1.85;;;13.00;80.60;;;;;;2069793;28;20026;-83
2021/05/09 02:44:51;;;;;;;3.00;1.60;;;12.90;80.60;;;;;;2077402;28;20113;-83
2021/05/09 02:45:52;;;;;;;4.63;1.73;;;12.90;80.60;;;;;;2073181;28;20022;-83
2021/05/09 02:46:53;;;;;;;2.50;1.60;;;12.90;81.20;;;;;;2073741;28;20037;-82
2021/05/09 02:47:53;;;;;;;3.00;1.63;;;12.90;80.70;;;;;;2080331;28;20246;-82
2021/05/09 02:48:54;;;;;;;2.95;1.70;;;12.90;80.70;;;;;;2081479;28;20036;-83
2021/05/09 02:50:01;;;;;;;3.40;1.65;;;12.90;81.30;;;;;;2068180;28;20154;-83
2021/05/09 02:51:01;;;;;;;2.25;1.55;;;12.90;80.70;;;;;;2069961;28;20034;-83
2021/05/09 02:52:02;;;;;;;3.00;1.60;;;12.90;80.70;;;;;;2076788;28;20041;-82
2021/05/09 02:53:03;;;;;;;2.78;1.65;;;12.80;80.70;;;;;;2077385;28;20087;-82
2021/05/09 02:54:04;;;;;;;2.35;1.42;;;12.90;80.80;;;;;;2069142;28;20030;-83
2021/05/09 02:55:06;;;;;;;3.10;1.60;;;12.80;80.70;;;;;;2067607;28;20022;-83
2021/05/09 02:56:06;;;;;;;2.55;1.67;;;12.80;80.70;;;;;;2066610;28;20114;-83
2021/05/09 02:57:07;;;;;;;2.60;1.60;;;12.80;80.70;;;;;;2070618;28;20439;-83
2021/05/09 02:58:08;;;;;;;3.13;1.60;;;12.80;80.80;;;;;;2068244;28;20038;-84
2021/05/09 02:59:08;;;;;;;3.10;1.63;;;12.80;80.80;;;;;;2085326;28;20022;-83
2021/05/09 03:00:10;;;;;;;3.08;1.55;;;12.80;80.80;;;;;;2074125;28;20042;-83
2021/05/09 03:01:10;;;;;;;2.42;1.50;;;12.80;80.80;;;;;;2078357;28;20022;-83
2021/05/09 03:02:11;;;;;;;3.05;1.58;;;12.80;80.90;;;;;;2086560;28;20037;-84
2021/05/09 03:03:12;;;;;;;2.35;1.50;;;12.80;80.90;;;;;;2085988;28;20045;-84
2021/05/09 03:04:12;;;;;;;2.28;1.48;;;12.80;80.90;;;;;;2081715;28;20060;-83
2021/05/09 03:05:13;;;;;;;2.85;1.58;;;12.80;81.00;;;;;;2076374;28;20034;-83
2021/05/09 03:06:14;;;;;;;2.38;1.52;;;12.70;81.00;;;;;;2076072;28;20040;-83
2021/05/09 03:07:15;;;;;;;4.32;1.75;;;12.70;81.10;;;;;;2069034;28;20073;-83
2021/05/09 03:08:15;;;;;;;3.30;1.63;;;12.70;81.10;;;;;;2076397;28;20029;-83
2021/05/09 03:09:16;;;;;;;3.45;1.73;;;12.70;81.10;;;;;;2066647;28;20531;-84
2021/05/09 03:10:16;;;;;;;3.30;1.77;;;12.70;81.20;;;;;;2070089;28;20035;-84
2021/05/09 03:11:17;;;;;;;2.40;1.55;;;12.70;81.20;;;;;;2081067;28;20033;-83
2021/05/09 03:12:18;;;;;;;3.08;1.55;;;12.70;81.30;;;;;;2073019;28;20026;-83
2021/05/09 03:13:18;;;;;;;1.92;1.23;;;12.60;81.20;;;;;;2064362;28;20122;-84
2021/05/09 03:14:19;;;;;;;2.88;1.52;;;12.60;81.30;;;;;;2078499;28;20025;-83
2021/05/09 03:15:20;;;;;;;3.40;1.70;;;12.60;81.30;;;;;;2076209;28;20137;-83
2021/05/09 03:16:20;;;;;;;3.20;1.60;;;12.60;81.40;;;;;;2060532;28;20026;-83
2021/05/09 03:17:21;;;;;;;2.78;1.63;;;12.60;81.40;;;;;;2064659;28;20535;-83
2021/05/09 03:18:22;;;;;;;3.58;1.63;;;12.50;81.40;;;;;;2072897;28;20026;-84
2021/05/09 03:19:22;;;;;;;2.40;1.60;;;12.60;81.50;;;;;;2075361;28;20057;-83
2021/05/09 03:20:23;;;;;;;2.97;1.80;;;12.50;81.50;;;;;;2069982;28;20469;-83
2021/05/09 03:21:23;;;;;;;2.05;1.55;;;12.50;81.70;;;;;;2061661;28;20041;-83
2021/05/09 03:22:24;;;;;;;2.08;1.60;;;12.50;81.70;;;;;;2077672;28;20121;-83
2021/05/09 03:23:25;;;;;;;2.80;1.83;;;12.50;82.40;;;;;;2076858;28;20057;-83
2021/05/09 03:24:26;;;;;;;3.13;1.70;;;12.50;81.80;;;;;;2071172;28;20030;-83
2021/05/09 03:25:26;;;;;;;3.22;1.83;;;12.40;81.80;;;;;;2069358;28;20025;-83
2021/05/09 03:26:27;;;;;;;2.97;1.73;;;12.40;81.80;;;;;;2072977;28;20076;-83
2021/05/09 03:27:28;;;;;;;2.70;1.50;;;12.40;81.80;;;;;;2080253;28;20033;-83
2021/05/09 03:28:28;;;;;;;3.00;1.70;;;12.40;81.80;;;;;;2064855;28;20038;-83
2021/05/09 03:29:29;;;;;;;2.80;1.55;;;12.40;81.90;;;;;;2067287;28;20477;-83
2021/05/09 03:30:29;;;;;;;3.40;1.70;;;12.40;81.90;;;;;;2057348;28;20125;-83
2021/05/09 03:31:31;;;;;;;1.98;1.60;;;12.40;81.90;;;;;;2048821;28;20038;-84
2021/05/09 03:32:31;;;;;;;2.75;1.60;;;12.40;81.90;;;;;;2063394;28;20022;-84
2021/05/09 03:33:32;;;;;;;3.60;1.80;;;12.40;82.00;;;;;;2057412;28;20605;-84
2021/05/09 03:34:33;;;;;;;2.85;1.40;;;12.40;82.00;;;;;;2063746;28;20037;-84
2021/05/09 03:35:34;;;;;;;2.38;1.50;;;12.40;82.00;;;;;;2061394;28;20527;-83
2021/05/09 03:36:35;;;;;;;2.40;1.67;;;12.40;82.00;;;;;;2068241;28;20628;-83
2021/05/09 03:37:35;;;;;;;2.05;1.42;;;12.30;82.00;;;;;;2069069;28;20093;-84
2021/05/09 03:38:36;;;;;;;3.45;1.83;;;12.30;82.00;;;;;;2064798;28;20018;-83
2021/05/09 03:39:37;;;;;;;2.65;1.58;;;12.30;82.10;;;;;;2078398;28;20064;-84
2021/05/09 03:40:40;;;;;;;3.45;1.60;;;12.30;82.20;;;;;;2064164;28;20022;-84
2021/05/09 03:41:41;;;;;;;3.60;1.60;;;12.30;82.20;;;;;;2057484;28;20039;-83
2021/05/09 03:42:42;;;;;;;2.83;1.42;;;12.30;82.30;;;;;;2060258;28;20034;-83
2021/05/09 03:43:43;;;;;;;2.65;1.70;;;12.30;82.30;;;;;;2073177;28;20050;-83
2021/05/09 03:44:44;;;;;;;2.95;1.60;;;12.20;82.20;;;;;;2079040;28;20037;-83
2021/05/09 03:45:45;;;;;;;2.70;1.60;;;12.20;82.30;;;;;;2074787;28;20026;-83
2021/05/09 03:46:45;;;;;;;3.00;1.70;;;12.20;82.30;;;;;;2075119;28;20038;-83
2021/05/09 03:47:46;;;;;;;3.13;1.60;;;12.20;82.30;;;;;;2071154;28;20026;-83
2021/05/09 03:48:47;;;;;;;2.38;1.60;;;12.30;82.30;;;;;;2062255;28;20042;-83
2021/05/09 03:49:47;;;;;;;2.20;1.50;;;12.30;82.30;;;;;;2072744;28;20125;-83
2021/05/09 03:50:48;;;;;;;3.67;1.80;;;12.30;82.30;;;;;;2072933;28;20041;-82
2021/05/09 03:51:48;;;;;;;3.55;1.80;;;12.30;82.30;;;;;;2063512;28;20062;-83
2021/05/09 03:52:49;;;;;;;2.97;1.65;;;12.30;82.40;;;;;;2062812;28;20106;-83
2021/05/09 03:53:50;;;;;;;2.78;1.52;;;12.30;82.40;;;;;;2060496;28;20526;-84
2021/05/09 03:54:51;;;;;;;3.15;1.75;;;12.30;82.30;;;;;;2075747;28;20026;-83
2021/05/09 03:55:51;;;;;;;3.25;1.83;;;12.30;82.30;;;;;;2079115;28;20392;-84
2021/05/09 03:56:52;;;;;;;2.33;1.50;;;12.30;82.30;;;;;;2080199;28;20073;-83
2021/05/09 03:57:53;;;;;;;3.33;1.90;;;12.30;82.40;;;;;;2080299;28;20029;-83
2021/05/09 03:58:53;;;;;;;3.20;2.00;;;12.20;82.30;;;;;;2090681;28;20063;-82
2021/05/09 03:59:54;;;;;;;3.40;1.98;;;12.30;82.40;;;;;;2083763;28;20029;-83
2021/05/09 04:00:55;;;;;;;3.78;1.90;;;12.30;82.30;;;;;;2083884;28;20029;-84
2021/05/09 04:01:57;;;;;;;3.00;1.73;;;12.30;82.30;;;;;;2083049;28;20032;-83
2021/05/09 04:02:58;;;;;;;3.22;1.88;;;12.30;82.30;;;;;;2075030;28;20499;-84
2021/05/09 04:03:58;;;;;;;3.92;1.90;;;12.30;82.30;;;;;;2065103;28;20040;-83
2021/05/09 04:04:59;;;;;;;4.15;1.88;;;12.30;82.30;;;;;;2085835;28;20034;-83
2021/05/09 04:05:59;;;;;;;3.72;1.90;;;12.30;82.30;;;;;;2087500;28;20037;-83
2021/05/09 04:07:00;;;;;;;4.47;1.98;;;12.30;82.30;;;;;;2080687;28;20515;-83
2021/05/09 04:08:01;;;;;;;2.33;1.75;;;12.30;82.30;;;;;;2063715;28;20132;-83
2021/05/09 04:09:02;;;;;;;2.60;1.70;;;12.20;82.30;;;;;;2069771;28;20105;-84
2021/05/09 04:10:04;;;;;;;3.60;1.90;;;12.20;82.30;;;;;;2072742;28;20038;-83
2021/05/09 04:11:04;;;;;;;4.22;1.90;;;12.20;82.40;;;;;;2075291;28;20433;-84
2021/05/09 04:12:06;;;;;;;3.35;1.73;;;12.20;82.40;;;;;;2068421;28;20038;-82
2021/05/09 04:13:07;;;;;;;3.88;1.88;;;12.20;82.40;;;;;;2070101;28;20061;-83
2021/05/09 04:14:07;;;;;;;2.95;2.00;;;12.20;82.50;;;;;;2074879;28;20033;-83
2021/05/09 04:15:09;;;;;;;4.13;2.08;;;12.20;82.50;;;;;;2077038;28;20022;-83
2021/05/09 04:16:09;;;;;;;3.88;2.10;;;12.20;82.50;;;;;;2082805;28;20128;-84
2021/05/09 04:17:10;;;;;;;3.92;1.90;;;12.20;82.50;;;;;;2076090;28;20018;-83
2021/05/09 04:18:11;;;;;;;3.33;2.03;;;12.20;82.60;;;;;;2072577;28;20041;-82
2021/05/09 04:19:11;;;;;;;3.28;1.90;;;12.20;82.60;;;;;;2064750;28;20026;-83
2021/05/09 04:20:12;;;;;;;3.25;1.98;;;12.10;82.60;;;;;;2079586;28;20133;-83
2021/05/09 04:21:13;;;;;;;3.85;2.30;;;12.10;82.60;;;;;;2075508;28;20056;-82
2021/05/09 04:22:14;;;;;;;4.10;2.00;;;12.10;82.60;;;;;;2079823;28;20037;-82
2021/05/09 04:23:16;;;;;;;3.28;1.95;;;12.10;82.60;;;;;;2087132;28;20056;-83
2021/05/09 04:24:17;;;;;;;4.03;1.98;;;12.10;82.70;;;;;;2086322;28;20029;-83
2021/05/09 04:25:18;;;;;;;3.53;2.03;;;12.10;82.70;;;;;;2087067;28;20047;-83
2021/05/09 04:26:18;;;;;;;3.58;2.38;;;12.10;83.30;;;;;;2078541;28;20037;-85
2021/05/09 04:27:19;;;;;;;2.78;1.90;;;12.10;82.70;;;;;;2056711;28;20059;-83
2021/05/09 04:28:20;;;;;;;3.17;2.17;;;12.10;82.70;;;;;;2072349;28;20394;-83
2021/05/09 04:29:21;;;;;;;3.95;2.08;;;12.10;82.70;;;;;;2075174;28;20519;-83
2021/05/09 04:30:22;;;;;;;3.45;1.90;;;12.10;82.70;;;;;;2063694;28;20046;-83
2021/05/09 04:31:23;;;;;;;3.50;2.45;;;12.10;82.70;;;;;;2076642;28;20030;-83
2021/05/09 04:32:23;;;;;;;4.10;2.30;;;12.10;82.80;;;;;;2082377;28;20033;-83
2021/05/09 04:33:26;;;;;;;4.72;2.25;;;12.10;82.80;;;;;;2080444;28;20065;-82
2021/05/09 04:34:26;;;;;;;3.85;2.30;;;12.10;82.80;;;;;;2086082;28;20026;-83
2021/05/09 04:35:27;;;;;;;5.72;2.45;;;12.10;82.80;;;;;;2085479;28;20037;-83
2021/05/09 04:36:28;;;;;;;4.15;2.30;;;12.20;82.80;;;;;;2074448;28;20032;-83
2021/05/09 04:37:29;;;;;;;4.00;2.25;;;12.20;82.80;;;;;;2078791;28;20065;-83
2021/05/09 04:38:29;;;;;;;3.10;2.10;;;12.10;82.70;;;;;;2080941;28;20081;-83
2021/05/09 04:39:30;;;;;;;3.55;2.25;;;12.20;82.70;;;;;;2071233;28;20042;-83
2021/05/09 04:40:31;;;;;;;4.60;2.25;;;12.20;82.70;;;;;;2063343;28;20033;-83
2021/05/09 04:41:31;;;;;;;3.22;2.25;;;12.20;82.70;;;;;;2077230;28;20116;-83
2021/05/09 04:42:32;;;;;;;3.58;2.30;;;12.20;82.60;;;;;;2081353;28;20025;-83
2021/05/09 04:43:34;;;;;;;3.33;2.30;;;12.20;82.60;;;;;;2089115;28;20033;-83
2021/05/09 04:44:35;;;;;;;3.75;1.98;;;12.30;82.60;;;;;;2080737;28;20220;-84
2021/05/09 04:45:36;;;;;;;3.78;2.28;;;12.30;82.50;;;;;;2076490;28;20041;-83
2021/05/09 04:46:36;;;;;;;4.40;2.50;;;12.30;82.50;;;;;;2074941;28;20037;-83
2021/05/09 04:47:37;;;;;;;3.67;2.20;;;12.30;82.40;;;;;;2079150;28;20032;-82
2021/05/09 04:48:37;;;;;;;4.50;2.38;;;12.40;83.10;;;;;;2076549;28;20041;-83
2021/05/09 04:49:38;;;;;;;3.47;2.10;;;12.40;82.40;;;;;;2084832;28;20025;-83
2021/05/09 04:50:39;;;;;;;4.82;2.35;;;12.40;82.40;;;;;;2072185;28;20500;-83
2021/05/09 04:51:39;;;;;;;3.42;1.92;;;12.40;82.30;;;;;;2063304;28;20026;-83
2021/05/09 04:52:40;;;;;;;3.10;1.80;;;12.40;82.30;;;;;;2077336;28;20080;-82
2021/05/09 04:53:41;;;;;;;3.63;2.10;;;12.50;82.30;;;;;;2084677;28;20048;-83
2021/05/09 04:54:41;;;;;;;3.85;2.10;;;12.50;82.20;;;;;;2085415;28;20025;-83
2021/05/09 04:55:42;;;;;;;3.72;2.00;;;12.50;82.20;;;;;;2070737;28;20076;-83
2021/05/09 04:56:43;;;;;;;3.38;2.17;;;12.50;82.10;;;;;;2066440;28;20046;-83
2021/05/09 04:57:43;;;;;;;3.83;2.22;;;12.50;82.10;;;;;;2067763;28;20493;-83
2021/05/09 04:58:44;;;;;;;2.88;2.30;;;12.50;82.10;;;;;;2066994;28;20118;-83
2021/05/09 04:59:44;;;;;;;2.78;2.00;;;12.60;82.10;;;;;;2079098;28;20045;-83
2021/05/09 05:00:45;;;;;;;4.47;2.30;;;12.60;82.10;;;;;;2080559;28;20029;-83
2021/05/09 05:01:46;;;;;;;2.63;2.00;;;12.60;82.10;;;;;;2078707;28;20116;-83
2021/05/09 05:02:47;;;;;;;3.03;1.92;;;12.60;82.10;;;;;;2079980;28;20025;-83
2021/05/09 05:03:48;;;;;;;3.53;2.00;;;12.60;82.10;;;;;;2081640;28;20141;-83
2021/05/09 05:04:49;;;;;;;2.75;1.77;;;12.60;82.10;;;;;;2084894;28;20040;-83
2021/05/09 05:05:49;;;;;;;3.03;1.90;;;12.70;82.10;;;;;;2088532;28;20025;-83
2021/05/09 05:06:50;;;;;;;3.20;2.17;;;12.70;82.60;;;;;;2088911;28;20371;-83
2021/05/09 05:07:51;;;;;;;4.53;2.15;;;12.70;82.00;;;;;;2079108;28;20140;-83
2021/05/09 05:08:52;;;;;;;2.97;2.20;;;12.70;81.90;;;;;;2080352;28;20121;-82
2021/05/09 05:09:52;;;;;;;4.40;2.17;;;12.80;81.90;;;;;;2086870;28;20387;-83
2021/05/09 05:10:53;;;;;;;3.20;2.00;;;12.90;81.90;;;;;;2077391;28;20036;-83
2021/05/09 05:11:55;;;;;;;2.45;1.70;;;12.90;81.80;;;;;;2075467;28;20049;-82
2021/05/09 05:12:55;;;;;;;4.53;2.20;;;13.00;81.60;;;;;;2080716;28;20052;-83
2021/05/09 05:13:56;;;;;;;3.17;1.90;;;13.10;81.40;;;;;;2066237;28;20027;-83
2021/05/09 05:14:57;;;;;;;2.90;1.90;;;13.10;81.30;;;;;;2075964;28;20067;-82
2021/05/09 05:16:00;;;;;;;3.65;2.30;;;13.20;81.00;;;;;;2077366;28;20081;-83
2021/05/09 05:17:01;;;;;;;3.72;2.20;;;13.40;80.90;;;;;;2085289;28;20013;-83
2021/05/09 05:18:02;;;;;;;3.88;2.22;;;13.40;80.60;;;;;;2096568;28;20040;-83